Time;durP1;ratioP1;P1;durP2;ratioP2;P2;SDS_P1;SDS_P2;PMS_P1;PMS_P2;Temp;Humidity;BMP_temperature;BMP_pressure;BME280_temperature;BME280_humidity;BME280_pressure;Samples;Min_cycle;Max_cycle;Signal;HPM_P1;HPM_P2
2023/04/29 00:01:10;;;;;;;2.17;1.97;;;20.80;60.80;;;;;;4944547;28;20200;-59
2023/04/29 00:03:36;;;;;;;2.73;2.40;;;20.70;61.10;;;;;;4944931;28;20447;-58
2023/04/29 00:06:01;;;;;;;3.17;2.33;;;20.60;61.10;;;;;;4940020;28;20284;-59
2023/04/29 00:08:27;;;;;;;2.40;1.90;;;20.60;61.20;;;;;;4945595;28;20199;-58
2023/04/29 00:10:53;;;;;;;2.23;2.13;;;20.50;61.50;;;;;;4941123;28;20810;-58
2023/04/29 00:13:18;;;;;;;3.20;2.27;;;20.40;61.80;;;;;;4941320;28;20271;-58
2023/04/29 00:15:44;;;;;;;3.20;2.30;;;20.50;62.00;;;;;;4941296;28;20203;-59
2023/04/29 00:18:10;;;;;;;2.60;2.40;;;20.50;61.80;;;;;;4947431;28;20200;-58
2023/04/29 00:20:37;;;;;;;2.50;2.30;;;20.50;61.60;;;;;;4945137;28;20619;-59
2023/04/29 00:23:03;;;;;;;5.50;2.30;;;20.50;61.70;;;;;;4939881;28;20198;-59
2023/04/29 00:25:28;;;;;;;3.03;2.10;;;20.50;61.30;;;;;;4946537;28;20444;-58
2023/04/29 00:27:54;;;;;;;1.87;1.77;;;20.50;61.10;;;;;;4940957;28;20665;-59
2023/04/29 00:30:19;;;;;;;2.50;2.30;;;20.60;61.10;;;;;;4940749;28;20228;-59
2023/04/29 00:32:45;;;;;;;1.90;1.80;;;20.60;60.80;;;;;;4946890;28;20219;-58
2023/04/29 00:35:11;;;;;;;2.10;1.53;;;20.60;60.50;;;;;;4948791;28;20240;-58
2023/04/29 00:37:37;;;;;;;2.13;2.00;;;20.70;60.00;;;;;;4949552;28;20219;-59
2023/04/29 00:40:03;;;;;;;2.70;2.50;;;20.70;59.80;;;;;;4949713;28;20571;-59
2023/04/29 00:42:32;;;;;;;4.60;2.20;;;20.70;59.60;;;;;;4940605;28;20617;-58
2023/04/29 00:44:57;;;;;;;3.00;2.50;;;20.70;59.70;;;;;;4943418;28;20451;-59
2023/04/29 00:47:23;;;;;;;2.33;2.13;;;20.70;59.70;;;;;;4942545;28;20458;-59
2023/04/29 00:49:49;;;;;;;2.63;2.43;;;20.60;59.90;;;;;;4939182;28;20216;-58
2023/04/29 00:52:16;;;;;;;2.97;2.70;;;20.40;61.30;;;;;;4949248;28;20240;-58
2023/04/29 00:54:43;;;;;;;2.30;2.20;;;20.40;61.80;;;;;;4944151;28;20274;-58
2023/04/29 00:57:09;;;;;;;1.90;1.80;;;20.40;61.60;;;;;;4932148;28;20503;-59
2023/04/29 00:59:35;;;;;;;2.60;2.40;;;20.40;61.60;;;;;;4945659;28;20491;-58
2023/04/29 01:02:03;;;;;;;2.60;2.10;;;20.50;61.40;;;;;;4945939;28;20200;-58
2023/04/29 01:04:30;;;;;;;2.30;2.10;;;20.50;61.20;;;;;;4947137;28;20439;-59
2023/04/29 01:07:36;;;;;;;2.90;2.10;;;20.60;61.20;;;;;;4946498;28;20546;-59
2023/04/29 01:10:33;;;;;;;1.90;1.80;;;20.50;61.40;;;;;;4944471;28;20884;-58
2023/04/29 01:13:17;;;;;;;2.60;2.37;;;20.50;61.60;;;;;;4943366;28;20498;-59
2023/04/29 01:15:47;;;;;;;2.17;2.00;;;20.40;61.40;;;;;;4942394;28;20447;-59
2023/04/29 01:18:27;;;;;;;3.30;2.30;;;20.40;61.70;;;;;;4940823;28;20444;-58
2023/04/29 01:20:55;;;;;;;2.10;1.63;;;20.50;61.60;;;;;;4946276;28;20458;-59
2023/04/29 01:23:26;;;;;;;1.70;1.60;;;20.50;61.10;;;;;;4942544;28;20857;-58
2023/04/29 01:25:51;;;;;;;3.40;2.67;;;20.50;61.30;;;;;;4939388;28;20455;-59
2023/04/29 01:28:35;;;;;;;1.83;1.73;;;20.50;59.90;;;;;;4941229;28;20439;-59
2023/04/29 01:31:19;;;;;;;2.47;2.27;;;20.50;60.20;;;;;;4945258;28;20196;-59
2023/04/29 01:34:10;;;;;;;2.20;2.03;;;20.50;60.00;;;;;;4933833;29;20522;-58
2023/04/29 01:37:05;;;;;;;3.10;2.73;;;20.50;60.00;;;;;;4934450;29;20593;-58
2023/04/29 01:40:00;;;;;;;4.00;3.60;;;20.50;59.80;;;;;;4960142;28;20435;-58
2023/04/29 01:42:36;;;;;;;3.47;3.17;;;20.50;59.30;;;;;;4945334;29;20542;-58
2023/04/29 01:45:05;;;;;;;3.13;2.93;;;20.50;59.40;;;;;;4951872;28;20785;-59
2023/04/29 01:47:32;;;;;;;3.27;3.07;;;20.40;59.00;;;;;;4952284;28;20428;-58
2023/04/29 01:49:58;;;;;;;2.90;2.33;;;20.30;58.90;;;;;;4941931;29;20563;-58
2023/04/29 01:52:24;;;;;;;2.80;2.60;;;20.20;59.00;;;;;;4958806;28;20862;-58
2023/04/29 01:54:49;;;;;;;2.80;2.60;;;20.10;59.50;;;;;;4951399;28;20191;-58
2023/04/29 01:57:15;;;;;;;4.83;2.30;;;20.10;59.80;;;;;;4948510;28;20196;-58
2023/04/29 01:59:41;;;;;;;3.53;2.90;;;20.10;60.20;;;;;;4938171;29;20197;-59
2023/04/29 02:02:07;;;;;;;2.60;2.40;;;20.10;59.80;;;;;;4942761;28;20530;-59
2023/04/29 02:04:33;;;;;;;3.83;2.93;;;20.10;59.70;;;;;;4948492;29;20197;-59
2023/04/29 02:06:59;;;;;;;2.90;2.63;;;20.10;59.40;;;;;;4944628;29;20469;-58
2023/04/29 02:09:24;;;;;;;3.03;2.83;;;20.00;59.00;;;;;;4944854;29;20204;-59
2023/04/29 02:11:50;;;;;;;3.27;2.80;;;20.00;58.80;;;;;;4938767;29;20196;-58
2023/04/29 02:14:15;;;;;;;4.60;2.50;;;20.00;59.10;;;;;;4944213;28;20714;-58
2023/04/29 02:16:44;;;;;;;3.37;2.67;;;20.00;58.90;;;;;;4942102;28;20668;-59
2023/04/29 02:19:10;;;;;;;2.43;2.23;;;20.00;59.00;;;;;;4946512;28;20203;-58
2023/04/29 02:21:36;;;;;;;3.47;2.37;;;20.00;59.20;;;;;;4943203;28;20456;-58
2023/04/29 02:24:02;;;;;;;2.33;2.13;;;19.90;59.10;;;;;;4935248;28;20504;-58
2023/04/29 02:26:27;;;;;;;3.37;2.40;;;19.90;59.10;;;;;;4944587;28;20277;-58
2023/04/29 02:28:53;;;;;;;4.03;3.10;;;19.80;58.70;;;;;;4947229;28;20964;-58
2023/04/29 02:31:19;;;;;;;4.53;2.70;;;19.80;58.70;;;;;;4943826;28;20200;-58
2023/04/29 02:33:44;;;;;;;2.50;2.30;;;19.70;58.60;;;;;;4942269;28;20554;-58
2023/04/29 02:36:10;;;;;;;2.70;2.10;;;19.80;58.70;;;;;;4945652;28;20272;-59
2023/04/29 02:38:35;;;;;;;2.10;1.90;;;19.70;58.40;;;;;;4941156;28;20201;-58
2023/04/29 02:41:01;;;;;;;2.60;2.40;;;19.70;58.50;;;;;;4952380;28;20260;-58
2023/04/29 02:43:29;;;;;;;3.60;2.53;;;19.60;58.40;;;;;;4943789;28;20218;-58
2023/04/29 02:45:55;;;;;;;2.50;2.03;;;19.50;58.50;;;;;;4936374;28;20657;-58
2023/04/29 02:48:21;;;;;;;2.50;2.30;;;19.40;58.60;;;;;;4946401;28;20454;-58
2023/04/29 02:50:46;;;;;;;2.17;2.07;;;19.40;58.50;;;;;;4950558;28;20207;-59
2023/04/29 02:53:12;;;;;;;1.87;1.77;;;19.30;58.70;;;;;;4944511;28;20264;-58
2023/04/29 02:55:38;;;;;;;2.20;2.00;;;19.30;59.20;;;;;;4948770;28;20659;-58
2023/04/29 02:58:03;;;;;;;2.43;2.23;;;19.20;59.30;;;;;;4940257;28;20204;-60
2023/04/29 03:00:29;;;;;;;2.10;2.00;;;19.30;59.10;;;;;;4951863;29;20219;-58
2023/04/29 03:02:55;;;;;;;3.13;1.90;;;19.20;58.60;;;;;;4941535;28;20209;-58
2023/04/29 03:05:20;;;;;;;2.87;1.93;;;19.10;58.70;;;;;;4941992;28;20208;-60
2023/04/29 03:07:46;;;;;;;4.60;2.17;;;19.00;58.90;;;;;;4948723;28;20589;-58
2023/04/29 03:10:11;;;;;;;2.73;2.30;;;18.90;59.00;;;;;;4951102;28;20192;-58
2023/04/29 03:12:38;;;;;;;2.33;2.13;;;18.80;59.20;;;;;;4951694;28;20754;-59
2023/04/29 03:15:05;;;;;;;2.40;2.20;;;18.70;59.50;;;;;;4948515;28;20196;-58
2023/04/29 03:17:32;;;;;;;2.30;2.20;;;18.70;59.90;;;;;;4948548;28;20482;-58
2023/04/29 03:19:58;;;;;;;2.87;2.20;;;18.80;59.70;;;;;;4951561;28;21642;-58
2023/04/29 03:22:23;;;;;;;4.03;2.50;;;18.80;59.40;;;;;;4946642;28;20443;-58
2023/04/29 03:24:49;;;;;;;2.90;2.40;;;18.90;59.40;;;;;;4941808;28;20573;-58
2023/04/29 03:27:15;;;;;;;2.53;2.33;;;19.00;59.20;;;;;;4942860;28;20200;-58
2023/04/29 03:29:40;;;;;;;3.03;2.57;;;19.00;58.70;;;;;;4951585;28;20275;-58
2023/04/29 03:32:06;;;;;;;3.53;3.03;;;19.10;58.60;;;;;;4944272;28;20355;-58
2023/04/29 03:34:31;;;;;;;3.03;2.70;;;19.10;58.40;;;;;;4948055;28;20232;-58
2023/04/29 03:36:57;;;;;;;2.90;2.70;;;19.10;58.10;;;;;;4950902;28;20240;-58
2023/04/29 03:39:23;;;;;;;2.60;2.40;;;19.10;58.00;;;;;;4951275;29;20534;-58
2023/04/29 03:41:49;;;;;;;2.43;2.23;;;19.10;57.80;;;;;;4944998;28;20443;-58
2023/04/29 03:44:14;;;;;;;2.20;2.10;;;19.00;57.80;;;;;;4947581;29;20196;-58
2023/04/29 03:46:40;;;;;;;6.17;2.83;;;19.00;57.90;;;;;;4947737;28;20196;-58
2023/04/29 03:49:06;;;;;;;14.33;2.23;;;19.00;57.70;;;;;;4949660;28;20689;-58
2023/04/29 03:51:31;;;;;;;4.63;2.30;;;19.00;57.60;;;;;;4953699;28;20231;-58
2023/04/29 03:53:57;;;;;;;1.93;1.83;;;18.90;57.20;;;;;;4947660;28;20240;-59
2023/04/29 03:56:26;;;;;;;8.23;1.97;;;18.80;57.30;;;;;;4952890;28;20296;-58
2023/04/29 03:58:52;;;;;;;3.00;2.07;;;18.70;57.30;;;;;;4949224;28;20495;-58
2023/04/29 04:01:18;;;;;;;5.93;2.00;;;18.60;57.60;;;;;;4944048;28;20955;-58
2023/04/29 04:03:44;;;;;;;4.73;2.10;;;18.50;57.20;;;;;;4944028;28;20546;-58
2023/04/29 04:06:09;;;;;;;3.90;1.80;;;18.40;57.40;;;;;;4945486;28;20282;-58
2023/04/29 04:08:35;;;;;;;1.80;1.70;;;18.30;58.00;;;;;;4948106;28;20280;-58
2023/04/29 04:11:03;;;;;;;4.70;1.90;;;18.30;58.50;;;;;;4949214;28;20243;-58
2023/04/29 04:13:29;;;;;;;5.13;2.17;;;18.30;58.80;;;;;;4939118;28;20231;-58
2023/04/29 04:15:54;;;;;;;1.90;1.80;;;18.30;58.50;;;;;;4940851;28;20450;-58
2023/04/29 04:18:20;;;;;;;2.40;1.77;;;18.30;58.70;;;;;;4948214;28;20200;-58
2023/04/29 04:20:46;;;;;;;2.70;2.40;;;18.40;58.50;;;;;;4950812;28;20202;-58
2023/04/29 04:23:12;;;;;;;2.10;2.00;;;18.40;58.20;;;;;;4944856;28;20191;-58
2023/04/29 04:25:43;;;;;;;1.93;1.70;;;18.40;57.80;;;;;;4950209;28;20811;-59
2023/04/29 04:28:09;;;;;;;7.33;2.10;;;18.40;57.60;;;;;;4948619;28;20443;-58
2023/04/29 04:30:34;;;;;;;5.37;1.97;;;18.40;57.90;;;;;;4943796;28;20837;-59
2023/04/29 04:33:00;;;;;;;4.60;2.13;;;18.40;58.00;;;;;;4941620;28;20591;-59
2023/04/29 04:35:26;;;;;;;6.33;2.03;;;18.30;57.60;;;;;;4949046;28;20235;-59
2023/04/29 04:37:52;;;;;;;5.60;2.30;;;18.20;58.10;;;;;;4945635;28;20440;-59
2023/04/29 04:40:17;;;;;;;5.97;2.20;;;18.20;58.30;;;;;;4951059;28;20199;-57
2023/04/29 04:42:43;;;;;;;4.33;2.00;;;18.20;58.60;;;;;;4942965;28;20196;-57
2023/04/29 04:45:10;;;;;;;4.93;1.90;;;18.30;58.60;;;;;;4946797;28;20307;-57
2023/04/29 04:47:36;;;;;;;5.50;2.00;;;18.30;58.60;;;;;;4944058;28;20363;-58
2023/04/29 04:50:03;;;;;;;5.80;2.00;;;18.30;58.10;;;;;;4951802;28;20526;-59
2023/04/29 04:52:29;;;;;;;3.67;2.10;;;18.20;58.20;;;;;;4955578;28;20223;-58
2023/04/29 04:54:55;;;;;;;2.70;1.97;;;18.20;57.80;;;;;;4965607;28;20442;-58
2023/04/29 04:57:20;;;;;;;1.93;1.83;;;18.20;58.10;;;;;;4950485;28;20448;-59
2023/04/29 04:59:46;;;;;;;2.60;1.80;;;18.30;58.00;;;;;;4948365;28;20203;-58
2023/04/29 05:02:17;;;;;;;2.10;2.00;;;18.30;58.00;;;;;;4949183;28;20549;-58
2023/04/29 05:04:43;;;;;;;2.17;1.97;;;18.30;57.80;;;;;;4944085;28;20447;-59
2023/04/29 05:07:09;;;;;;;2.10;1.53;;;18.40;57.90;;;;;;4943014;28;20446;-59
2023/04/29 05:09:35;;;;;;;1.90;1.80;;;18.40;57.80;;;;;;4943454;28;20192;-58
2023/04/29 05:12:01;;;;;;;1.50;1.40;;;18.40;57.40;;;;;;4947050;28;20888;-58
2023/04/29 05:14:27;;;;;;;2.10;2.00;;;18.40;57.40;;;;;;4942007;28;20491;-58
2023/04/29 05:16:56;;;;;;;1.90;1.67;;;18.40;57.40;;;;;;4941284;28;20199;-59
2023/04/29 05:19:22;;;;;;;1.80;1.70;;;18.40;57.50;;;;;;4943684;28;20188;-59
2023/04/29 05:21:47;;;;;;;1.63;1.53;;;18.20;57.70;;;;;;4945584;28;20446;-59
2023/04/29 05:24:14;;;;;;;3.37;2.40;;;18.20;58.30;;;;;;4945816;28;20327;-59
2023/04/29 05:26:40;;;;;;;4.17;2.10;;;18.10;58.80;;;;;;4948384;28;20200;-59
2023/04/29 05:29:06;;;;;;;3.00;2.50;;;18.10;59.20;;;;;;4945537;28;20542;-59
2023/04/29 05:31:32;;;;;;;2.10;2.00;;;18.00;59.30;;;;;;4943767;28;21114;-58
2023/04/29 05:33:57;;;;;;;1.73;1.63;;;18.00;59.70;;;;;;4937671;28;20244;-59
2023/04/29 05:36:23;;;;;;;1.63;1.53;;;18.00;60.10;;;;;;4951490;29;20464;-59
2023/04/29 05:38:49;;;;;;;2.27;2.10;;;18.10;60.80;;;;;;4945948;28;20664;-58
2023/04/29 05:41:15;;;;;;;1.97;1.87;;;18.10;60.90;;;;;;4964896;28;20202;-59
2023/04/29 05:43:40;;;;;;;2.73;2.40;;;18.10;61.20;;;;;;4946133;28;20188;-59
2023/04/29 05:46:06;;;;;;;2.80;2.60;;;18.10;61.20;;;;;;4941516;28;20575;-59
2023/04/29 05:48:31;;;;;;;2.80;2.60;;;18.20;61.30;;;;;;4941001;28;20227;-59
2023/04/29 05:50:57;;;;;;;3.10;2.90;;;18.20;61.20;;;;;;4943131;28;20287;-58
2023/04/29 05:53:22;;;;;;;3.23;2.97;;;18.20;61.10;;;;;;4946805;28;20678;-59
2023/04/29 05:55:49;;;;;;;2.90;2.70;;;18.20;61.30;;;;;;4943121;28;20197;-59
2023/04/29 05:58:15;;;;;;;2.70;2.50;;;18.30;62.30;;;;;;4948315;28;20204;-58
2023/04/29 06:00:42;;;;;;;3.33;3.10;;;18.30;61.70;;;;;;4941576;28;20553;-58
2023/04/29 06:03:09;;;;;;;3.70;3.30;;;18.40;61.90;;;;;;4941016;28;20442;-59
2023/04/29 06:05:35;;;;;;;3.33;3.13;;;18.40;62.20;;;;;;4943163;28;20600;-58
2023/04/29 06:08:01;;;;;;;3.37;3.07;;;18.50;63.10;;;;;;4940793;28;21057;-59
2023/04/29 06:10:27;;;;;;;3.17;2.97;;;18.40;64.00;;;;;;4942600;28;20455;-59
2023/04/29 06:12:53;;;;;;;3.57;3.17;;;18.40;64.90;;;;;;4941754;28;20601;-59
2023/04/29 06:15:18;;;;;;;4.10;3.10;;;18.40;65.60;;;;;;4946427;28;20728;-58
2023/04/29 06:17:44;;;;;;;3.87;3.47;;;18.40;66.20;;;;;;4944735;28;20231;-59
2023/04/29 06:20:10;;;;;;;4.63;3.23;;;18.20;67.60;;;;;;4946841;28;20203;-59
2023/04/29 06:22:36;;;;;;;3.97;3.30;;;18.40;68.10;;;;;;4947063;28;20776;-58
2023/04/29 06:25:01;;;;;;;3.60;3.30;;;18.60;68.20;;;;;;4943046;28;20790;-58
2023/04/29 06:27:28;;;;;;;3.47;3.23;;;18.70;68.40;;;;;;4949755;28;20462;-58
2023/04/29 06:29:53;;;;;;;5.80;4.17;;;18.80;68.60;;;;;;4948517;28;20604;-59
2023/04/29 06:32:19;;;;;;;3.47;3.20;;;18.80;68.80;;;;;;4947523;28;20542;-58
2023/04/29 06:34:45;;;;;;;3.10;2.80;;;18.80;69.10;;;;;;4949574;28;20279;-59
2023/04/29 06:37:10;;;;;;;4.50;4.10;;;18.70;70.20;;;;;;4947477;28;20192;-58
2023/04/29 06:39:36;;;;;;;3.90;3.60;;;18.80;69.80;;;;;;4965297;28;20545;-59
2023/04/29 06:42:02;;;;;;;4.73;3.43;;;18.80;69.90;;;;;;4950443;28;20247;-59
2023/04/29 06:44:28;;;;;;;4.37;3.97;;;18.80;69.70;;;;;;4946097;28;20201;-59
2023/04/29 06:46:53;;;;;;;3.80;3.50;;;19.00;70.00;;;;;;4943750;28;20443;-59
2023/04/29 06:49:19;;;;;;;3.20;2.90;;;19.10;70.30;;;;;;4944408;28;20287;-59
2023/04/29 06:51:44;;;;;;;3.67;3.37;;;19.30;71.10;;;;;;4942350;28;20200;-58
2023/04/29 06:54:10;;;;;;;3.00;2.80;;;19.30;69.30;;;;;;4946547;28;20232;-58
2023/04/29 06:56:35;;;;;;;3.00;2.80;;;19.40;67.90;;;;;;4946517;28;20205;-59
2023/04/29 06:59:01;;;;;;;5.20;2.90;;;19.50;67.20;;;;;;4944981;28;20207;-58
2023/04/29 07:01:26;;;;;;;3.30;3.00;;;19.60;67.50;;;;;;4943219;28;20205;-58
2023/04/29 07:03:52;;;;;;;3.20;2.77;;;19.60;66.50;;;;;;4947472;28;20195;-60
2023/04/29 07:06:17;;;;;;;2.93;2.73;;;19.50;65.60;;;;;;4948340;28;20200;-58
2023/04/29 07:08:43;;;;;;;3.40;3.10;;;19.60;65.80;;;;;;4942405;28;20211;-58
2023/04/29 07:11:09;;;;;;;4.10;2.63;;;19.60;65.30;;;;;;4942357;28;20224;-59
2023/04/29 07:13:34;;;;;;;3.30;3.00;;;19.50;64.80;;;;;;4948515;28;20235;-58
2023/04/29 07:16:00;;;;;;;3.00;2.80;;;19.50;64.90;;;;;;4947996;28;20196;-58
2023/04/29 07:18:25;;;;;;;2.83;2.63;;;19.50;65.20;;;;;;4941073;28;20204;-58
2023/04/29 07:20:51;;;;;;;3.70;3.00;;;19.40;64.90;;;;;;4943258;28;20284;-58
2023/04/29 07:23:17;;;;;;;6.27;3.03;;;19.30;65.00;;;;;;4945273;28;20199;-58
2023/04/29 07:25:43;;;;;;;3.20;3.00;;;19.40;65.10;;;;;;4946754;28;20560;-58
2023/04/29 07:28:08;;;;;;;4.30;2.80;;;19.50;64.90;;;;;;4943882;28;20661;-58
2023/04/29 07:30:34;;;;;;;3.17;2.97;;;19.60;64.70;;;;;;4943391;28;20254;-60
2023/04/29 07:33:08;;;;;;;3.60;3.30;;;19.60;64.70;;;;;;4944740;28;20225;-58
2023/04/29 07:35:33;;;;;;;3.60;3.30;;;19.50;65.00;;;;;;4942527;28;20486;-58
2023/04/29 07:37:59;;;;;;;3.60;3.30;;;19.30;65.20;;;;;;4947412;28;20875;-58
2023/04/29 07:40:25;;;;;;;3.40;3.10;;;19.20;66.80;;;;;;4947396;28;20599;-56
2023/04/29 07:42:50;;;;;;;8.17;3.10;;;19.20;66.10;;;;;;4949001;28;20271;-56
2023/04/29 07:45:16;;;;;;;3.50;3.23;;;19.20;65.20;;;;;;4947417;28;20637;-56
2023/04/29 07:47:42;;;;;;;3.07;2.80;;;19.30;64.60;;;;;;4946382;28;20196;-59
2023/04/29 07:50:07;;;;;;;3.20;2.60;;;19.30;64.50;;;;;;4940830;28;20193;-58
2023/04/29 07:52:33;;;;;;;2.90;2.70;;;19.20;64.60;;;;;;4954686;28;20219;-58
2023/04/29 07:54:59;;;;;;;2.87;2.67;;;19.30;65.50;;;;;;4939012;28;20208;-59
2023/04/29 07:57:25;;;;;;;2.93;2.73;;;19.40;63.60;;;;;;4942695;28;20236;-58
2023/04/29 07:59:54;;;;;;;3.20;3.00;;;19.50;62.30;;;;;;4941333;28;20202;-59
2023/04/29 08:02:20;;;;;;;3.63;3.33;;;19.50;62.80;;;;;;4950741;28;20500;-58
2023/04/29 08:04:46;;;;;;;3.10;2.90;;;19.60;62.50;;;;;;4953344;28;20958;-56
2023/04/29 08:07:12;;;;;;;3.10;2.80;;;19.70;62.30;;;;;;4941027;28;20443;-58
2023/04/29 08:09:38;;;;;;;2.90;2.70;;;19.80;62.10;;;;;;4946533;28;20440;-56
2023/04/29 08:12:04;;;;;;;3.30;3.00;;;19.70;61.70;;;;;;4940586;28;20259;-56
2023/04/29 08:14:29;;;;;;;3.10;2.70;;;19.50;62.00;;;;;;4937212;28;20328;-58
2023/04/29 08:16:55;;;;;;;4.17;2.97;;;19.50;61.90;;;;;;4942278;28;20526;-59
2023/04/29 08:19:21;;;;;;;2.23;2.13;;;19.50;61.50;;;;;;4945641;28;20200;-56
2023/04/29 08:21:47;;;;;;;3.00;2.50;;;19.60;61.30;;;;;;4959557;28;20199;-59
2023/04/29 08:24:12;;;;;;;5.67;2.80;;;19.60;62.50;;;;;;4961069;28;20196;-56
2023/04/29 08:26:41;;;;;;;2.57;2.33;;;19.60;62.30;;;;;;4944671;28;20474;-56
2023/04/29 08:29:07;;;;;;;2.70;2.50;;;19.50;61.60;;;;;;4936016;28;20203;-56
2023/04/29 08:31:33;;;;;;;4.33;2.60;;;19.50;61.60;;;;;;4936907;28;20452;-56
2023/04/29 08:33:59;;;;;;;3.33;2.37;;;19.50;61.10;;;;;;4929509;28;20848;-59
2023/04/29 08:36:27;;;;;;;3.37;3.00;;;19.60;60.80;;;;;;4943256;28;20492;-56
2023/04/29 08:38:53;;;;;;;2.70;2.50;;;19.80;60.90;;;;;;4949930;28;20903;-56
2023/04/29 08:41:19;;;;;;;3.07;2.50;;;19.70;60.80;;;;;;4945612;28;21869;-56
2023/04/29 08:43:45;;;;;;;2.43;2.23;;;19.50;60.80;;;;;;4943259;28;20455;-56
2023/04/29 08:46:11;;;;;;;3.23;2.93;;;19.50;61.20;;;;;;4951021;28;20196;-57
2023/04/29 08:48:39;;;;;;;2.60;2.40;;;19.50;61.30;;;;;;4947890;29;20204;-58
2023/04/29 08:51:05;;;;;;;3.17;2.43;;;19.60;61.10;;;;;;4938215;28;20519;-58
2023/04/29 08:53:33;;;;;;;2.57;2.47;;;19.60;61.80;;;;;;4942967;28;20487;-54
2023/04/29 08:56:12;;;;;;;2.47;2.27;;;19.60;60.30;;;;;;4942214;28;20204;-56
2023/04/29 08:58:40;;;;;;;3.67;2.80;;;19.80;60.50;;;;;;4936749;28;20444;-55
2023/04/29 09:01:08;;;;;;;2.80;2.60;;;19.70;59.90;;;;;;4936684;28;20510;-59
2023/04/29 09:03:43;;;;;;;3.33;3.03;;;19.60;60.80;;;;;;4937037;29;20530;-58
2023/04/29 09:06:09;;;;;;;3.13;2.60;;;19.50;60.50;;;;;;4937435;28;20451;-58
2023/04/29 09:08:36;;;;;;;2.83;2.30;;;19.50;60.60;;;;;;4948719;28;20459;-57
2023/04/29 09:11:03;;;;;;;2.80;2.60;;;19.60;61.30;;;;;;4946185;28;20500;-57
2023/04/29 09:13:30;;;;;;;2.80;2.60;;;19.70;61.10;;;;;;4941265;28;20595;-57
2023/04/29 09:15:56;;;;;;;3.30;2.50;;;19.90;59.70;;;;;;4938616;28;20823;-57
2023/04/29 09:18:46;;;;;;;2.90;2.70;;;19.70;59.60;;;;;;4939206;28;20436;-58
2023/04/29 09:21:18;;;;;;;2.63;2.43;;;19.80;59.90;;;;;;4944263;28;20441;-57
2023/04/29 09:23:45;;;;;;;3.03;2.80;;;20.00;59.80;;;;;;4937460;28;20551;-58
2023/04/29 09:26:10;;;;;;;3.00;2.70;;;20.10;59.10;;;;;;4938648;28;20522;-57
2023/04/29 09:28:38;;;;;;;4.53;2.90;;;20.30;59.60;;;;;;4947819;29;20532;-57
2023/04/29 09:31:05;;;;;;;3.10;2.80;;;20.20;59.50;;;;;;4947198;28;20214;-57
2023/04/29 09:33:31;;;;;;;2.90;2.70;;;20.20;59.40;;;;;;4946927;28;20575;-57
2023/04/29 09:35:57;;;;;;;3.13;2.93;;;20.30;59.30;;;;;;4943322;29;20993;-57
2023/04/29 09:38:23;;;;;;;2.80;2.60;;;20.40;58.90;;;;;;4946174;28;20447;-57
2023/04/29 09:40:50;;;;;;;8.23;2.90;;;20.10;57.80;;;;;;4937168;28;20196;-57
2023/04/29 09:43:17;;;;;;;3.10;2.80;;;20.10;58.80;;;;;;4943061;28;20205;-57
2023/04/29 09:45:47;;;;;;;3.63;3.20;;;20.20;58.10;;;;;;4953301;28;20799;-58
2023/04/29 09:48:14;;;;;;;3.30;3.10;;;20.30;57.80;;;;;;4946101;28;20472;-57
2023/04/29 09:50:42;;;;;;;3.00;2.80;;;20.40;57.40;;;;;;4954162;28;20884;-57
2023/04/29 09:53:09;;;;;;;4.03;2.83;;;20.40;57.70;;;;;;4947871;28;20994;-57
2023/04/29 09:56:00;;;;;;;3.10;2.90;;;20.60;57.90;;;;;;4947741;28;20447;-57
2023/04/29 09:58:36;;;;;;;4.63;3.70;;;20.70;57.80;;;;;;4942381;28;20490;-58
2023/04/29 10:01:02;;;;;;;7.13;3.30;;;20.80;57.50;;;;;;4952680;28;20451;-58
2023/04/29 10:03:37;;;;;;;2.97;2.77;;;21.10;57.50;;;;;;4953071;28;20451;-58
2023/04/29 10:06:05;;;;;;;3.60;3.30;;;21.50;56.90;;;;;;4949080;28;20803;-59
2023/04/29 10:08:32;;;;;;;4.07;3.77;;;21.60;55.80;;;;;;4951926;28;20801;-58
2023/04/29 10:11:00;;;;;;;4.77;3.27;;;21.60;55.10;;;;;;4949963;28;20448;-58
2023/04/29 10:13:27;;;;;;;3.40;3.20;;;21.70;54.80;;;;;;4956176;28;20908;-58
2023/04/29 10:16:08;;;;;;;3.27;3.07;;;21.70;54.50;;;;;;4952432;29;20474;-58
2023/04/29 10:18:39;;;;;;;2.53;2.40;;;21.90;55.00;;;;;;4951615;29;20462;-59
2023/04/29 10:21:08;;;;;;;2.67;2.43;;;22.00;54.00;;;;;;4946901;28;20463;-58
2023/04/29 10:23:35;;;;;;;3.37;2.70;;;22.00;53.00;;;;;;4952835;29;20824;-58
2023/04/29 10:26:02;;;;;;;3.90;3.27;;;22.10;53.20;;;;;;4945547;28;20501;-58
2023/04/29 10:28:31;;;;;;;2.80;2.60;;;22.20;53.50;;;;;;4943865;28;20451;-58
2023/04/29 10:31:01;;;;;;;3.63;2.83;;;22.20;52.90;;;;;;4946227;28;20541;-58
2023/04/29 10:33:30;;;;;;;2.90;2.60;;;22.20;52.80;;;;;;4954316;29;20979;-58
2023/04/29 10:35:55;;;;;;;2.57;2.37;;;22.50;54.10;;;;;;4948047;29;20551;-58
2023/04/29 10:38:28;;;;;;;3.70;2.47;;;22.70;53.00;;;;;;4946051;29;20530;-58
2023/04/29 10:40:58;;;;;;;3.03;2.80;;;22.80;52.10;;;;;;4943307;28;20204;-58
2023/04/29 10:43:25;;;;;;;3.20;2.90;;;22.90;51.70;;;;;;4939430;28;20463;-58
2023/04/29 10:46:25;;;;;;;3.27;3.00;;;23.00;52.10;;;;;;4949483;29;20455;-58
2023/04/29 10:48:58;;;;;;;3.53;3.23;;;23.00;52.00;;;;;;4947373;28;20453;-58
2023/04/29 10:51:34;;;;;;;5.00;3.70;;;22.90;52.00;;;;;;4951034;28;20479;-58
2023/04/29 10:54:11;;;;;;;3.27;2.83;;;22.80;52.30;;;;;;4951069;28;20516;-59
2023/04/29 10:56:51;;;;;;;4.00;3.07;;;22.90;53.00;;;;;;4953153;28;20446;-58
2023/04/29 10:59:43;;;;;;;2.90;2.70;;;23.20;52.60;;;;;;4946757;29;20451;-58
2023/04/29 11:02:11;;;;;;;3.73;3.43;;;23.30;52.10;;;;;;4938026;29;20465;-58
2023/04/29 11:05:07;;;;;;;2.77;2.50;;;23.50;51.00;;;;;;4950468;28;20449;-59
2023/04/29 11:07:33;;;;;;;3.37;2.83;;;23.50;50.50;;;;;;4950725;28;20454;-58
2023/04/29 11:10:01;;;;;;;3.03;2.83;;;23.20;50.20;;;;;;4952018;29;20814;-58
2023/04/29 11:12:27;;;;;;;3.50;3.23;;;23.10;49.70;;;;;;4953366;28;20192;-58
2023/04/29 11:15:00;;;;;;;3.10;2.60;;;23.20;50.20;;;;;;4952147;28;20459;-56
2023/04/29 11:17:33;;;;;;;2.63;2.43;;;23.10;50.30;;;;;;4949554;28;20444;-58
2023/04/29 11:20:00;;;;;;;4.30;2.87;;;23.00;49.90;;;;;;4952217;28;20467;-59
2023/04/29 11:22:26;;;;;;;4.60;2.50;;;23.10;50.10;;;;;;4950105;29;20466;-58
2023/04/29 11:24:59;;;;;;;4.53;2.80;;;23.20;49.90;;;;;;4952039;28;20789;-58
2023/04/29 11:27:31;;;;;;;2.70;2.30;;;23.10;49.80;;;;;;4951355;28;20452;-58
2023/04/29 11:29:58;;;;;;;2.97;2.77;;;23.20;50.20;;;;;;4947870;29;20452;-59
2023/04/29 11:32:27;;;;;;;2.57;2.37;;;23.30;50.10;;;;;;4942455;29;20467;-58
2023/04/29 11:34:54;;;;;;;2.50;2.30;;;23.50;50.60;;;;;;4943794;28;20591;-59
2023/04/29 11:37:23;;;;;;;2.90;2.70;;;23.50;49.90;;;;;;4941485;28;20483;-58
2023/04/29 11:39:50;;;;;;;3.10;2.90;;;23.70;49.30;;;;;;4941446;28;20623;-59
2023/04/29 11:42:20;;;;;;;3.37;3.07;;;23.70;48.40;;;;;;4942006;28;20459;-56
2023/04/29 11:44:46;;;;;;;3.83;3.53;;;24.00;50.20;;;;;;4943821;28;20534;-56
2023/04/29 11:47:12;;;;;;;3.43;3.13;;;24.10;50.50;;;;;;4951162;28;20522;-56
2023/04/29 11:49:38;;;;;;;4.20;3.90;;;24.40;50.40;;;;;;4943593;28;20215;-58
2023/04/29 11:52:04;;;;;;;3.80;3.50;;;24.60;48.90;;;;;;4945461;28;20955;-59
2023/04/29 11:54:29;;;;;;;4.13;3.83;;;24.70;48.80;;;;;;4943292;28;20254;-57
2023/04/29 11:56:56;;;;;;;5.20;3.10;;;24.90;47.00;;;;;;4952277;28;20200;-56
2023/04/29 11:59:23;;;;;;;4.53;4.23;;;25.00;48.40;;;;;;4940191;28;20192;-56
2023/04/29 12:01:49;;;;;;;4.27;3.50;;;25.10;46.70;;;;;;4948838;28;20457;-56
2023/04/29 12:04:15;;;;;;;4.20;3.80;;;25.00;47.00;;;;;;4942185;28;20494;-59
2023/04/29 12:06:41;;;;;;;4.53;4.13;;;25.20;47.50;;;;;;4948469;28;20479;-58
2023/04/29 12:09:07;;;;;;;4.17;3.87;;;25.20;45.30;;;;;;4949232;28;20447;-57
2023/04/29 12:11:34;;;;;;;5.63;4.10;;;25.00;45.60;;;;;;4961995;28;20279;-56
2023/04/29 12:14:02;;;;;;;4.20;3.83;;;24.50;46.30;;;;;;4947582;28;20577;-57
2023/04/29 12:16:29;;;;;;;4.87;4.47;;;24.50;47.10;;;;;;4942553;28;20443;-57
2023/04/29 12:18:55;;;;;;;4.10;3.80;;;24.60;47.30;;;;;;4945706;28;20546;-57
2023/04/29 12:21:21;;;;;;;4.60;4.20;;;24.60;48.20;;;;;;4951828;28;20525;-57
2023/04/29 12:23:47;;;;;;;5.27;4.53;;;24.80;47.80;;;;;;4941920;28;20451;-57
2023/04/29 12:26:13;;;;;;;6.30;3.47;;;24.80;47.60;;;;;;4938755;28;20956;-57
2023/04/29 12:28:41;;;;;;;5.20;2.70;;;24.70;48.20;;;;;;4941180;28;21006;-57
2023/04/29 12:31:10;;;;;;;3.73;2.70;;;24.90;48.60;;;;;;4943184;28;20466;-56
2023/04/29 12:33:36;;;;;;;14.93;2.93;;;25.20;48.00;;;;;;4946557;28;20538;-57
2023/04/29 12:36:02;;;;;;;3.13;2.90;;;25.60;47.20;;;;;;4944761;28;20483;-56
2023/04/29 12:38:29;;;;;;;3.13;2.80;;;25.90;46.30;;;;;;4950108;28;20538;-56
2023/04/29 12:40:58;;;;;;;4.20;3.80;;;26.10;45.60;;;;;;4937359;28;20246;-56
2023/04/29 12:43:32;;;;;;;4.60;4.20;;;25.80;44.30;;;;;;4940354;28;20448;-57
2023/04/29 12:46:03;;;;;;;4.30;3.97;;;25.70;45.30;;;;;;4940790;28;20859;-57
2023/04/29 12:48:33;;;;;;;5.83;4.80;;;25.70;45.60;;;;;;4942877;28;20959;-56
2023/04/29 12:51:00;;;;;;;5.50;5.00;;;25.80;44.10;;;;;;4948768;28;20530;-56